Terminal Aerodrome Forecast
Issued by NWS

Home | Current Version | Previous Version | Text Only | Print | Product List | Glossary On
Versions: 1 2 3 4 5 6 7 8 9 10 11 12
000
FTUS44 KLZK 231100 RRA
TAFLIT
TAF
KLIT 231141Z 2312/2412 24003KT 4SM BR SKC
     FM231400 29005KT P6SM FEW040
     FM231800 29005KT P6SM BKN050
     FM240000 32003KT P6SM FEW250
     FM240600 01005KT P6SM SKC=

USA.gov is the U.S. government's official web portal to all federal, state and local government web resources and services.